地図

経路データ

SID SEASON NUMBER BASIN SUBBASIN NAME ISO_TIME NATURE LAT LON WMO_WIND WMO_PRES WMO_AGENCY TRACK_TYPE DIST2LAND LANDFALL IFLAG USA_AGENCY USA_ATCF_ID USA_LAT USA_LON USA_RECORD USA_STATUS USA_WIND USA_PRES USA_SSHS USA_R34_NE USA_R34_SE USA_R34_SW USA_R34_NW USA_R50_NE USA_R50_SE USA_R50_SW USA_R50_NW USA_R64_NE USA_R64_SE USA_R64_SW USA_R64_NW USA_POCI USA_ROCI USA_RMW USA_EYE TOKYO_LAT TOKYO_LON TOKYO_GRADE TOKYO_WIND TOKYO_PRES TOKYO_R50_DIR TOKYO_R50_LONG TOKYO_R50_SHORT TOKYO_R30_DIR TOKYO_R30_LONG TOKYO_R30_SHORT TOKYO_LAND CMA_LAT CMA_LON CMA_CAT CMA_WIND CMA_PRES HKO_LAT HKO_LON HKO_CAT HKO_WIND HKO_PRES NEWDELHI_LAT NEWDELHI_LON NEWDELHI_GRADE NEWDELHI_WIND NEWDELHI_PRES NEWDELHI_CI NEWDELHI_DP NEWDELHI_POCI REUNION_LAT REUNION_LON REUNION_TYPE REUNION_WIND REUNION_PRES REUNION_TNUM REUNION_CI REUNION_RMW REUNION_R34_NE REUNION_R34_SE REUNION_R34_SW REUNION_R34_NW REUNION_R50_NE REUNION_R50_SE REUNION_R50_SW REUNION_R50_NW REUNION_R64_NE REUNION_R64_SE REUNION_R64_SW REUNION_R64_NW BOM_LAT BOM_LON BOM_TYPE BOM_WIND BOM_PRES BOM_TNUM BOM_CI BOM_RMW BOM_R34_NE BOM_R34_SE BOM_R34_SW BOM_R34_NW BOM_R50_NE BOM_R50_SE BOM_R50_SW BOM_R50_NW BOM_R64_NE BOM_R64_SE BOM_R64_SW BOM_R64_NW BOM_ROCI BOM_POCI BOM_EYE BOM_POS_METHOD BOM_PRES_METHOD NADI_LAT NADI_LON NADI_CAT NADI_WIND NADI_PRES WELLINGTON_LAT WELLINGTON_LON WELLINGTON_WIND WELLINGTON_PRES DS824_LAT DS824_LON DS824_STAGE DS824_WIND DS824_PRES TD9636_LAT TD9636_LON TD9636_STAGE TD9636_WIND TD9636_PRES TD9635_LAT TD9635_LON TD9635_WIND TD9635_PRES TD9635_ROCI NEUMANN_LAT NEUMANN_LON NEUMANN_CLASS NEUMANN_WIND NEUMANN_PRES MLC_LAT MLC_LON MLC_CLASS MLC_WIND MLC_PRES USA_GUST BOM_GUST BOM_GUST_PER REUNION_GUST REUNION_GUST_PER USA_SEAHGT USA_SEARAD_NE USA_SEARAD_SE USA_SEARAD_SW USA_SEARAD_NW STORM_SPEED STORM_DIR
2019242N14180 2019 55 EP CP FAXAI 2019-08-30 06:00:00 NR 13.8000 180.100 main 2313 2313 O_____________ jtwc_wp WP142019 13.8000 -179.900 DB 15 1010 -3 10 277
2019242N14180 2019 55 WP MM FAXAI 2019-08-30 09:00:00 NR 13.8576 179.608 main 2357 2357 P_____________ WP142019 13.8576 179.608 DB 15 1009 -3 10 276
2019242N14180 2019 55 WP MM FAXAI 2019-08-30 12:00:00 NR 13.9000 179.100 main 2405 2405 I_____________ jtwc_wp WP142019 13.9000 179.100 DB 15 1009 -3 1009 130 85 10 274
2019242N14180 2019 55 WP MM FAXAI 2019-08-30 15:00:00 NR 13.9275 178.577 main 2454 2454 P_____________ WP142019 13.9275 178.577 DB 15 1009 -3 1009 130 77 10 276
2019242N14180 2019 55 WP MM FAXAI 2019-08-30 18:00:00 NR 14.0000 178.100 main 2499 2499 O_____________ jtwc_wp WP142019 14.0000 178.100 DB 15 1009 -3 1009 130 70 8 289
2019242N14180 2019 55 WP MM FAXAI 2019-08-30 21:00:00 NR 14.1997 177.750 main 2519 2519 P_____________ WP142019 14.1997 177.750 DB 15 1009 -3 1009 130 70 8 301
2019242N14180 2019 55 WP MM FAXAI 2019-08-31 00:00:00 NR 14.4000 177.400 main 2550 2550 O_____________ jtwc_wp WP142019 14.4000 177.400 DB 15 1009 -3 1009 130 70 8 290
2019242N14180 2019 55 WP MM FAXAI 2019-08-31 03:00:00 NR 14.4797 176.967 main 2586 2586 P_____________ WP142019 14.4797 176.967 DB 17 1008 -3 70 10 276
2019242N14180 2019 55 WP MM FAXAI 2019-08-31 06:00:00 NR 14.5000 176.400 main 2645 2645 O_____________ jtwc_wp WP142019 14.5000 176.400 DB 20 1007 -3 70 13 270
2019242N14180 2019 55 WP MM FAXAI 2019-08-31 09:00:00 NR 14.4777 175.637 main 2725 2725 P_____________ WP142019 14.4777 175.637 DB 20 1007 -3 70 16 270
2019242N14180 2019 55 WP MM FAXAI 2019-08-31 12:00:00 NR 14.5000 174.800 main 2806 2806 O_____________ jtwc_wp WP142019 14.5000 174.800 DB 20 1007 -3 70 16 278
2019242N14180 2019 55 WP MM FAXAI 2019-08-31 15:00:00 NR 14.6999 174.013 main 2878 2878 P_____________ WP142019 14.6999 174.013 DB 20 1008 -3 70 15 285
2019242N14180 2019 55 WP MM FAXAI 2019-08-31 18:00:00 NR 14.9000 173.300 main 2941 2921 O_____________ jtwc_wp WP142019 14.9000 173.300 DB 20 1010 -3 1010 120 70 13 279
2019242N14180 2019 55 WP MM FAXAI 2019-08-31 21:00:00 NR 14.8998 172.697 main 2921 2897 P_____________ WP142019 14.8998 172.697 DB 20 1008 -3 1010 115 57 11 270
2019242N14180 2019 55 WP MM FAXAI 2019-09-01 00:00:00 NR 14.9000 172.200 main 2897 2892 O_____________ jtwc_wp WP142019 14.9000 172.200 DB 20 1007 -3 1011 110 45 9 283
2019242N14180 2019 55 WP MM FAXAI 2019-09-01 03:00:00 NR 15.0997 171.793 main 2898 2894 P_____________ WP142019 15.0997 171.793 DB 22 1007 -3 1010 125 45 9 297
2019242N14180 2019 55 WP MM FAXAI 2019-09-01 06:00:00 TS 15.3000 171.400 main 2900 2879 O_____________ jtwc_wp WP142019 15.3000 171.400 TD 25 1008 -1 1010 140 45 9 285
2019242N14180 2019 55 WP MM FAXAI 2019-09-01 09:00:00 TS 15.3225 170.915 main 2879 2858 P_____________ WP142019 15.3225 170.915 TD 27 1007 -1 1010 130 45 10 270
2019242N14180 2019 55 WP MM FAXAI 2019-09-01 12:00:00 TS 15.3000 170.400 main 2858 2842 O_____________ jtwc_wp WP142019 15.3000 170.400 TD 30 1007 -1 1011 120 45 9 269
2019242N14180 2019 55 WP MM FAXAI 2019-09-01 15:00:00 TS 15.3121 169.937 main 2838 2829 P_____________ WP142019 15.3121 169.937 TD 30 1006 -1 1010 115 40 10 276
2019242N14180 2019 55 WP MM FAXAI 2019-09-01 18:00:00 TS 15.4000 169.400 main 2829 2799 O_____________ jtwc_wp WP142019 15.4000 169.400 TD 30 1005 -1 1009 110 35 12 284
2019242N14180 2019 55 WP MM FAXAI 2019-09-01 21:00:00 TS 15.6199 168.703 main 2799 2772 P_____________ WP142019 15.6199 168.703 TD 30 1004 -1 1009 115 35 15 290
2019242N14180 2019 55 WP MM FAXAI 2019-09-02 00:00:00 TS 15.9167 167.900 1010 tokyo main 2772 2742 OOO___________ jtwc_wp WP142019 15.9000 167.900 TD 30 1003 -1 1010 120 35 15.9000 167.900 2 1010 0 0 0 16.0000 167.900 1 25 1002 16 288
2019242N14180 2019 55 WP MM FAXAI 2019-09-02 03:00:00 TS 16.1260 167.123 main 2735 2707 PPP___________ WP142019 16.1727 167.035 TD 30 1004 -1 1009 122 35 16.0504 167.243 2 1009 0 0 16.1081 167.180 1 25 1002 15 284
2019242N14180 2019 55 WP MM FAXAI 2019-09-02 06:00:00 TS 16.2800 166.410 1008 tokyo main 2707 2678 OOO___________ jtwc_wp WP142019 16.4000 166.200 TD 30 1005 -1 1008 125 35 16.2000 166.600 2 1008 0 0 0 16.2000 166.500 1 25 1002 13 281
2019242N14180 2019 55 WP MM FAXAI 2019-09-02 09:00:00 TS 16.3830 165.791 main 2678 2650 PPP___________ WP142019 16.5221 165.505 TD 30 1007 -1 1009 145 35 16.3498 165.985 2 1008 0 0 16.2772 165.885 1 25 1002 12 281
2019242N14180 2019 55 WP MM FAXAI 2019-09-02 12:00:00 TS 16.5000 165.200 1008 tokyo main 2650 2630 OOO___________ jtwc_wp WP142019 16.6000 164.900 TD 30 1009 -1 1011 165 35 16.5000 165.400 2 1008 0 0 0 16.4000 165.300 1 25 1002 11 285
2019242N14180 2019 55 WP MM FAXAI 2019-09-02 15:00:00 TS 16.6714 164.633 main 2634 2614 PPP___________ WP142019 16.6997 164.335 TD 32 1007 -1 1009 165 35 16.6572 164.857 2 1008 0 0 16.6573 164.708 1 25 1002 11 287
2019242N14180 2019 55 WP MM FAXAI 2019-09-02 18:00:00 TS 16.8333 164.067 1008 tokyo main 2614 2589 OOO___________ jtwc_wp WP142019 16.8000 163.800 TS 35 1005 0 35 10 10 20 1008 165 35 16.8000 164.300 2 1008 0 0 0 16.9000 164.100 1 25 1002 12 284
2019242N14180 2019 55 WP MM FAXAI 2019-09-02 21:00:00 TS 16.9415 163.462 main 2589 2566 PPP___________ WP142019 16.9222 163.265 TS 35 1004 0 62 30 1008 165 35 16.9150 163.657 2 1008 0 0 16.9873 163.465 1 25 1002 12 278
2019242N14180 2019 55 WP MM FAXAI 2019-09-03 00:00:00 TS 17.0000 162.833 1008 tokyo main 2561 2530 OOO___________ jtwc_wp WP142019 17.0000 162.700 TS 35 1003 0 90 50 1009 165 35 17.0000 163.000 2 1008 0 0 0 17.0000 162.800 1 25 1002 13 273
2019242N14180 2019 55 WP MM FAXAI 2019-09-03 03:00:00 TS 17.0076 162.153 main 2530 2500 PPP___________ WP142019 16.9652 162.035 TS 35 1004 0 80 50 1009 165 30 17.0575 162.362 2 1007 0 0 17.0002 162.062 1 25 1002 12 270
2019242N14180 2019 55 WP MM FAXAI 2019-09-03 06:00:00 TS 17.0000 161.533 1006 tokyo main 2495 2474 OOO___________ jtwc_wp WP142019 16.9000 161.400 TS 35 1005 0 70 50 50 65 1009 165 25 17.1000 161.800 2 1006 0 0 0 17.0000 161.400 1 25 1002 10 270
2019242N14180 2019 55 WP MM FAXAI 2019-09-03 09:00:00 TS 17.0106 161.069 main 2474 2460 PPP___________ WP142019 16.8698 160.897 TS 35 1004 0 70 52 37 52 1009 165 25 17.1347 161.370 2 1007 0 0 17.0272 160.940 1 25 1002 8 275
2019242N14180 2019 55 WP MM FAXAI 2019-09-03 12:00:00 TS 17.0667 160.700 1008 tokyo main 2465 2455 OOO___________ jtwc_wp WP142019 16.9000 160.500 TS 35 1004 0 70 55 25 40 1009 165 25 17.2000 161.000 2 1008 0 0 0 17.1000 160.600 1 25 1002 7 285
2019242N14180 2019 55 WP MM FAXAI 2019-09-03 15:00:00 TS 17.1940 160.354 main 2461 2451 PPP___________ WP142019 17.0198 160.178 TS 35 1004 0 70 55 25 40 1009 165 25 17.3349 160.600 2 1007 0 0 17.2274 160.285 1 25 1002 7 293
2019242N14180 2019 55 WP MM FAXAI 2019-09-03 18:00:00 TS 17.3385 160.031 1006 tokyo main 2452 2452 OOOO__________ jtwc_wp WP142019 17.2000 159.900 TS 35 1005 0 70 55 25 40 1009 165 25 17.5000 160.200 2 1006 0 0 0 17.4000 160.000 1 25 1002 17.0000 160.000 TD 25 1002 7 299
2019242N14180 2019 55 WP MM FAXAI 2019-09-03 21:00:00 TS 17.5392 159.709 main 2460 2460 PPPP__________ WP142019 17.3773 159.622 TS 35 1002 0 72 57 45 1008 165 25 17.6574 159.807 2 1007 0 0 17.5998 159.722 1 25 1002 17.5051 159.656 TD 25 1002 8 304
2019242N14180 2019 55 WP MM FAXAI 2019-09-04 00:00:00 TS 17.7667 159.353 1008 tokyo main 2478 2470 OOOO__________ jtwc_wp WP142019 17.6000 159.300 TS 35 1000 0 75 60 50 1007 165 25 17.8000 159.400 2 1008 0 0 0 17.8000 159.400 1 25 1002 17.9000 159.300 TD 25 1002 9 301
2019242N14180 2019 55 WP MM FAXAI 2019-09-04 03:00:00 TS 17.9762 158.937 main 2478 2474 PPPP__________ WP142019 17.9300 158.880 TS 35 1000 0 77 60 52 1007 172 25 17.8999 158.965 2 1007 0 0 17.9650 158.980 1 27 1001 18.1099 158.922 TD 27 1001 9 293
2019242N14180 2019 55 WP MM FAXAI 2019-09-04 06:00:00 TS 18.1250 158.475 1006 tokyo main 2474 2466 OOOO__________ jtwc_wp WP142019 18.2000 158.400 TS 35 1001 0 80 60 55 1007 180 25 18.0000 158.500 2 1006 0 0 0 18.1000 158.500 1 29 1000 18.2000 158.500 TD 30 1000 9 284
2019242N14180 2019 55 WP MM FAXAI 2019-09-04 09:00:00 TS 18.2094 157.969 main 2466 2456 PPPP__________ WP142019 18.2226 157.884 TS 35 1001 0 82 57 57 1007 180 25 18.1425 157.993 2 1005 0 0 18.2000 157.992 1 29 1000 18.2725 158.007 TD 30 1000 10 279
2019242N14180 2019 55 WP MM FAXAI 2019-09-04 12:00:00 TS 18.2750 157.475 1004 tokyo main 2460 2448 OOOO__________ jtwc_wp WP142019 18.2000 157.400 TS 35 1001 0 85 55 60 1007 180 25 18.3000 157.500 2 1004 0 0 0 18.3000 157.500 1 29 1000 18.3000 157.500 TD 30 1000 9 279
2019242N14180 2019 55 WP MM FAXAI 2019-09-04 15:00:00 TS 18.3499 157.039 main 2445 2445 PPPP__________ WP142019 18.2899 157.012 TS 35 1001 0 85 52 52 1007 180 25 18.4349 157.070 2 1003 0 0 18.4199 157.070 1 29 1000 18.2550 157.005 TD 30 1000 8 287
2019242N14180 2019 55 WP MM FAXAI 2019-09-04 18:00:00 TS 18.5000 156.675 35 1002 tokyo main 2458 2414 OOOO__________ jtwc_wp WP142019 18.5000 156.700 TS 35 1002 0 85 50 45 1007 180 25 18.6000 156.700 3 35 1002 0 1 150 90 0 18.6000 156.700 1 29 1000 18.3000 156.600 TD 30 1000 7 306
2019242N14180 2019 55 WP MM FAXAI 2019-09-04 21:00:00 TS 18.7929 156.407 main 2414 2374 PPPP__________ WP142019 18.8622 156.472 TS 37 1000 0 117 77 40 1006 180 27 18.8274 156.385 3 35 1001 0 1 150 90 18.8774 156.385 1 31 999 18.6047 156.385 TD 30 1000 8 323
2019242N14180 2019 55 WP MM FAXAI 2019-09-05 00:00:00 TS 19.1500 156.150 35 1000 tokyo main 2365 2322 OOOO__________ jtwc_wp WP142019 19.3000 156.200 TS 40 998 0 150 105 35 1006 180 30 19.1000 156.100 3 35 1000 0 1 150 90 0 19.2000 156.100 2 34 998 19.0000 156.200 TD 30 1000 9 320
2019242N14180 2019 55 WP MM FAXAI 2019-09-05 03:00:00 TS 19.4580 155.821 main 2313 2261 PPPP__________ WP142019 19.7001 155.745 TS 42 997 0 140 87 65 1006 172 30 19.3698 155.822 3 37 999 0 1 150 90 19.4848 155.830 2 34 998 19.2775 155.887 TD 32 999 9 314
2019242N14180 2019 55 WP MM FAXAI 2019-09-05 06:00:00 TS 19.8000 155.425 40 998 tokyo main 2261 2200 OOOO__________ jtwc_wp WP142019 20.1000 155.200 TS 45 996 0 130 70 95 1006 165 30 19.7000 155.500 3 40 998 0 1 150 90 0 19.8000 155.500 2 34 998 19.6000 155.500 TS 35 998 11 314
2019242N14180 2019 55 WP MM FAXAI 2019-09-05 09:00:00 TS 20.2148 154.980 main 2200 2133 PPPP__________ WP142019 20.4999 154.657 TS 47 995 0 115 102 85 1006 150 30 20.1197 155.110 3 40 997 0 1 150 90 20.1699 155.052 2 36 996 20.0697 155.102 TS 35 998 13 314
2019242N14180 2019 55 WP MM FAXAI 2019-09-05 12:00:00 TS 20.6750 154.450 40 996 tokyo main 2124 2051 OOOO__________ jtwc_wp WP142019 20.9000 154.100 TS 50 994 0 100 135 75 20 15 15 1007 135 30 20.6000 154.600 3 40 996 0 1 150 90 0 20.6000 154.500 2 38 995 20.6000 154.600 TS 35 998 14 311
2019242N14180 2019 55 WP MM FAXAI 2019-09-05 15:00:00 TS 21.1405 153.835 main 2044 1963 PPPP__________ WP142019 21.2773 153.549 TS 52 992 0 95 105 90 20 17 15 1006 135 25 21.0924 153.952 3 40 995 0 1 150 90 21.0924 153.880 2 38 995 21.0998 153.960 TS 37 996 15 308
2019242N14180 2019 55 WP MM FAXAI 2019-09-05 18:00:00 TS 21.6250 153.150 40 994 tokyo main 1963 1875 OOOO__________ jtwc_wp WP142019 21.7000 153.000 TS 55 991 0 90 75 105 20 20 15 1006 135 20 21.6000 153.200 3 40 994 0 1 150 90 0 21.6000 153.200 2 38 995 21.6000 153.200 TS 40 994 16 307
2019242N14180 2019 55 WP MM FAXAI 2019-09-05 21:00:00 TS 22.1133 152.456 main 1875 1781 PPPP__________ WP142019 22.2340 152.517 TS 57 989 0 90 85 92 20 20 17 1006 137 15 22.0922 152.422 3 42 993 0 1 150 90 22.0419 152.536 2 38 995 22.0852 152.350 TS 40 994 17 307
2019242N14180 2019 55 WP MM FAXAI 2019-09-06 00:00:00 TS 22.6250 151.700 45 992 tokyo main 1781 1689 OOOO__________ jtwc_wp WP142019 22.8000 151.900 TS 60 988 0 90 95 80 20 20 20 1007 140 10 22.6000 151.600 3 45 992 0 1 150 90 0 22.5000 151.800 2 38 995 22.6000 151.500 TS 40 994 18 306
2019242N14180 2019 55 WP MM FAXAI 2019-09-06 03:00:00 TS 23.1804 150.867 main 1679 1582 PPPP__________ WP142019 23.3157 150.953 TS 62 986 0 85 80 80 27 1006 140 12 23.1570 150.765 3 47 991 0 1 150 90 23.0350 150.930 2 41 992 23.2137 150.822 TS 42 992 19 305
2019242N14180 2019 55 WP MM FAXAI 2019-09-06 06:00:00 TS 23.7250 149.975 50 990 tokyo main 1582 1485 OOOO__________ jtwc_wp WP142019 23.8000 149.900 TY 65 984 1 80 65 40 80 35 20 1005 140 15 23.7000 149.900 4 50 990 0 1 150 90 0 23.6000 150.000 2 44 990 23.8000 150.100 TS 45 990 20 301
2019242N14180 2019 55 WP MM FAXAI 2019-09-06 09:00:00 TS 24.1930 149.044 main 1480 1399 PPPP__________ WP142019 24.2418 148.976 TY 65 984 1 95 82 50 82 40 17 1006 140 15 24.1499 148.992 4 52 987 0 1 165 105 24.1495 149.099 2 49 987 24.2308 149.107 TS 47 989 19 299
2019242N14180 2019 55 WP MM FAXAI 2019-09-06 12:00:00 TS 24.6500 148.125 55 985 tokyo main 1384 1303 OOOO__________ jtwc_wp WP142019 24.7000 148.100 TY 65 984 1 110 100 60 85 45 40 15 1007 140 15 24.6000 148.100 4 55 985 9 30 30 1 180 120 0 24.7000 148.200 3 54 985 24.6000 148.100 STS 50 988 19 301
2019242N14180 2019 55 WP MM FAXAI 2019-09-06 15:00:00 TS 25.1544 147.275 main 1294 1214 PPPP__________ WP142019 25.2420 147.235 TY 67 981 1 115 102 60 90 52 45 32 1006 145 30 25.1419 147.277 4 57 982 9 35 35 1 180 120 25.2649 147.270 3 59 980 24.9689 147.319 STS 55 984 18 304
2019242N14180 2019 55 WP MM FAXAI 2019-09-06 18:00:00 TS 25.6750 146.475 60 980 tokyo main 1205 1131 OOOO__________ jtwc_wp WP142019 25.8000 146.400 TY 70 979 1 120 105 60 95 60 50 30 40 50 40 20 20 1006 150 45 25.7000 146.500 4 60 980 9 40 40 1 180 120 0 25.8000 146.400 4 64 975 25.4000 146.600 STS 60 980 17 306
2019242N14180 2019 55 WP MM FAXAI 2019-09-06 21:00:00 TS 26.1721 145.717 main 1117 1035 PPPP__________ WP142019 26.2994 145.591 TY 77 973 1 125 105 60 100 65 45 25 45 42 30 15 22 1006 145 25 26.1856 145.773 4 62 977 9 45 45 1 180 120 26.2414 145.683 4 68 970 25.9620 145.822 STS 65 975 17 307
2019242N14180 2019 55 WP MM FAXAI 2019-09-07 00:00:00 TS 26.7000 144.950 65 975 tokyo main 1035 936 OOOO__________ jtwc_wp WP142019 26.8000 144.800 TY 85 968 2 130 105 60 105 70 40 20 50 35 20 10 25 1007 140 5 10 26.7000 145.000 5 65 975 9 50 50 1 180 120 0 26.7000 145.000 4 73 965 26.6000 145.000 T 70 970 18 308
2019242N14180 2019 55 WP MM FAXAI 2019-09-07 03:00:00 TS 27.3018 144.098 70 970 tokyo main 936 844 POPP__________ WP142019 27.3498 143.985 TY 92 962 2 127 100 60 102 67 42 22 50 35 22 12 25 1006 142 5 27.3000 144.100 5 70 970 9 50 50 1 180 120 0 27.2922 144.223 4 75 962 27.2652 144.085 T 70 970 19 309
2019242N14180 2019 55 WP MM FAXAI 2019-09-07 06:00:00 TS 27.9000 143.275 70 970 tokyo main 844 768 OOOO__________ jtwc_wp WP142019 27.9000 143.200 TY 100 956 3 125 95 60 100 65 45 25 50 35 25 15 25 1006 145 5 10 27.9000 143.300 5 70 970 9 50 50 1 150 90 0 27.9000 143.400 4 77 960 27.9000 143.200 T 70 970 18 308
2019242N14180 2019 55 WP MM FAXAI 2019-09-07 09:00:00 TS 28.4016 142.514 75 965 tokyo main 765 692 POPP__________ WP142019 28.3920 142.476 TY 105 952 3 122 95 57 87 52 42 27 40 27 22 17 22 1006 147 5 28.4000 142.600 5 75 965 9 50 50 1 150 90 0 28.4078 142.512 4 82 955 28.4066 142.468 T 75 965 17 307
2019242N14180 2019 55 WP MM FAXAI 2019-09-07 12:00:00 TS 28.9000 141.775 80 960 tokyo main 692 622 OOOO__________ jtwc_wp WP142019 28.9000 141.800 TY 110 948 3 120 95 55 75 40 40 30 30 20 20 20 20 1006 150 5 10 28.9000 141.800 5 80 960 9 50 50 1 150 90 0 28.9000 141.700 5 87 950 28.9000 141.800 T 80 960 16 311
2019242N14180 2019 55 WP MM FAXAI 2019-09-07 15:00:00 TS 29.4667 141.120 80 960 tokyo main 608 526 POPP__________ WP142019 29.4700 141.112 TY 112 945 3 120 97 57 85 52 45 27 40 27 22 15 22 1007 157 5 29.5000 141.200 5 80 960 9 50 50 1 150 90 0 29.4191 141.104 5 90 947 29.4777 141.063 T 82 957 16 317
2019242N14180 2019 55 WP MM FAXAI 2019-09-07 18:00:00 TS 30.1000 140.500 85 955 tokyo main 526 449 OOOO__________ jtwc_wp WP142019 30.1000 140.500 TY 115 942 4 120 100 60 95 65 50 25 50 35 25 10 25 1009 165 5 10 30.2000 140.500 5 85 955 9 50 50 1 150 90 0 30.0000 140.600 5 93 945 30.1000 140.400 ST 85 955 16 322
2019242N14180 2019 55 WP MM FAXAI 2019-09-07 21:00:00 TS 30.7436 139.971 85 955 tokyo main 449 362 POPP__________ WP142019 30.7772 139.997 TY 115 942 4 120 107 65 95 65 55 27 50 35 27 12 25 1008 162 5 30.8000 140.000 5 85 955 9 50 50 1 150 90 0 30.6777 140.006 5 95 942 30.7196 139.882 ST 90 950 16 328
2019242N14180 2019 55 WP MM FAXAI 2019-09-08 00:00:00 TS 31.4500 139.525 85 955 tokyo main 351 270 OOOO__________ jtwc_wp WP142019 31.5000 139.600 TY 115 942 4 120 115 70 95 65 60 30 50 35 30 15 25 1008 160 5 10 31.5000 139.500 5 85 955 9 50 50 2 120 90 0 31.4000 139.500 5 97 940 31.4000 139.500 ST 95 945 16 336
2019242N14180 2019 55 WP MM FAXAI 2019-09-08 03:00:00 TS 32.1986 139.194 85 955 tokyo main 270 190 POPP__________ WP142019 32.2724 139.225 TY 115 941 4 132 130 95 112 72 70 47 60 37 35 25 30 1008 160 8 32.2000 139.200 5 85 955 9 50 50 2 120 90 0 32.1072 139.167 5 97 940 32.2148 139.183 ST 95 945 16 344
2019242N14180 2019 55 WP MM FAXAI 2019-09-08 06:00:00 TS 32.9500 139.000 85 955 tokyo main 179 122 OOOO__________ jtwc_wp WP142019 33.0000 139.000 TY 115 940 4 145 145 120 130 80 80 65 70 40 40 35 35 1008 160 12 15 33.0000 139.000 5 85 955 9 50 50 2 120 90 0 32.8000 139.000 5 97 940 33.0000 139.000 ST 95 945 14 350
2019242N14180 2019 55 WP MM FAXAI 2019-09-08 09:00:00 TS 33.5273 138.918 85 955 tokyo main 122 58 POPP__________ WP142019 33.5722 138.960 TY 107 946 3 142 142 117 125 77 75 60 65 40 37 32 32 1008 160 8 33.5000 138.900 5 85 955 9 50 50 2 120 90 0 33.4572 138.910 5 95 942 33.5797 138.903 ST 92 947 12 1
2019242N14180 2019 55 WP MM FAXAI 2019-09-08 12:00:00 TS 34.1000 139.025 85 955 tokyo main 58 21 OOOO__________ jtwc_wp WP142019 34.1000 139.100 TY 100 952 3 140 140 115 120 75 70 55 60 40 35 30 30 1008 160 5 10 34.1000 139.000 5 85 955 9 50 50 2 120 90 0 34.1000 139.000 5 93 945 34.1000 139.000 ST 90 950 12 15
2019242N14180 2019 55 WP MM FAXAI 2019-09-08 15:00:00 TS 34.7235 139.293 80 960 tokyo main 27 0 POPP__________ WP142019 34.7070 139.303 TY 95 955 2 122 115 115 92 57 65 60 45 35 32 25 1007 155 5 34.7000 139.300 5 80 960 3 60 40 3 120 90 0 34.7798 139.260 5 87 950 34.7074 139.310 ST 87 952 13 23
2019242N14180 2019 55 WP MM FAXAI 2019-09-08 17:00:00 TS 35.1308 139.550 80 960 tokyo main 0 0 POPP__________ WP142019 35.1084 139.542 TY 91 957 2 110 98 115 74 45 61 63 34 31 30 21 1007 151 5 35.1000 139.500 5 80 960 3 60 40 3 120 90 1 35.2060 139.536 5 82 953 35.1087 139.623 ST 85 954 14 30
2019242N14180 2019 55 WP MM FAXAI 2019-09-08 18:00:00 TS 35.3250 139.725 80 960 tokyo main 9 9 OOOO__________ jtwc_wp WP142019 35.3000 139.700 TY 90 958 2 105 90 115 65 40 60 65 30 30 30 20 1007 150 5 10 35.3000 139.700 5 80 960 3 60 40 3 120 90 0 35.4000 139.700 5 81 955 35.3000 139.800 ST 85 955 14 37
2019242N14180 2019 55 WP MM FAXAI 2019-09-08 19:00:00 TS 35.5066 139.905 80 960 tokyo main 9 0 POPP__________ WP142019 35.4783 139.885 TY 87 962 2 102 87 109 64 40 54 60 30 29 29 20 1007 153 5 35.5000 139.900 5 80 960 3 60 40 3 120 90 1 35.5702 139.864 5 79 956 35.4780 139.970 ST 83 956 14 42
2019242N14180 2019 55 WP MM FAXAI 2019-09-08 21:00:00 TS 35.8506 140.306 80 960 tokyo main 0 0 POPP__________ WP142019 35.8153 140.333 TY 82 970 1 97 82 100 62 42 45 52 30 27 27 20 1008 160 5 35.9000 140.300 5 80 960 3 60 40 3 120 90 0 35.8723 140.241 5 77 960 35.8147 140.348 ST 80 960 14 47
2019242N14180 2019 55 WP MM FAXAI 2019-09-09 00:00:00 TS 36.3250 140.975 75 970 tokyo main 35 35 OOOO__________ jtwc_wp WP142019 36.3000 141.100 TY 75 982 1 90 75 85 60 45 30 40 30 25 25 20 1009 170 5 10 36.4000 140.900 5 75 970 3 50 40 3 120 90 0 36.3000 140.900 4 73 965 36.3000 141.000 T 75 965 15 49
2019242N14180 2019 55 WP MM FAXAI 2019-09-09 03:00:00 TS 36.8208 141.685 70 975 tokyo main 65 65 POPP__________ WP142019 36.8067 141.821 TY 70 981 1 90 80 77 60 45 30 40 30 22 22 20 1009 170 10 36.9000 141.600 5 70 975 3 50 40 3 120 90 0 36.7845 141.606 4 68 970 36.7921 141.714 T 70 970 16 50
2019242N14180 2019 55 WP MM FAXAI 2019-09-09 06:00:00 TS 37.3250 142.475 65 980 tokyo main 132 132 OOOO__________ jtwc_wp WP142019 37.3000 142.600 TY 65 980 1 90 85 70 60 45 30 40 30 20 20 20 20 1009 170 15 37.4000 142.400 5 65 980 3 50 30 3 120 90 0 37.3000 142.400 4 64 975 37.3000 142.500 T 65 975 17 52
2019242N14180 2019 55 WP MM FAXAI 2019-09-09 09:00:00 TS 37.8452 143.329 main 166 166 PPPP__________ WP142019 37.7644 143.463 TY 60 983 0 87 100 80 65 42 45 40 30 1009 170 20 37.8734 143.306 5 62 982 3 50 30 3 120 90 37.8716 143.248 4 59 980 37.8713 143.298 T 62 977 17 55
2019242N14180 2019 55 WP MM FAXAI 2019-09-09 12:00:00 TS 38.3250 144.275 60 985 tokyo main 230 230 OOOO__________ jtwc_wp WP142019 38.2000 144.400 TS 55 986 0 85 115 90 70 40 60 40 30 1009 170 25 38.3000 144.300 4 60 985 3 50 30 3 120 90 0 38.4000 144.200 3 54 985 38.4000 144.200 STS 60 980 18 61
2019242N14180 2019 55 WP MM FAXAI 2019-09-09 15:00:00 TS 38.7021 145.311 main 289 289 PPPP__________ WP142019 38.5989 145.364 TS 50 989 0 72 107 87 57 20 30 20 15 1009 150 30 38.6638 145.314 4 57 987 3 50 30 3 120 90 38.7725 145.280 3 49 987 38.7730 145.287 STS 57 982 18 66
2019242N14180 2019 55 WP MM FAXAI 2019-09-09 18:00:00 TS 39.0500 146.400 55 990 tokyo main 371 373 OOOO__________ jtwc_wp WP142019 39.0000 146.400 TS 45 993 0 60 100 85 45 1009 130 35 39.0000 146.400 4 55 990 3 50 30 3 120 90 0 39.1000 146.400 2 44 990 39.1000 146.400 STS 55 984 18 65
2019242N14180 2019 55 WP MM FAXAI 2019-09-09 21:00:00 TS 39.4511 147.427 main 435 435 PPPP__________ WP142019 39.4550 147.469 TS 42 992 0 60 100 85 45 1008 127 35 39.3412 147.557 4 991 3 3 39.5035 147.369 2 41 992 39.5045 147.314 STS 50 987 19 65
2019242N14180 2019 55 WP MM FAXAI 2019-09-10 00:00:00 ET 39.8467 148.593 992 tokyo main 457 452 OOOO__________ jtwc_wp WP142019 39.9000 148.700 EX 40 992 -4 60 100 85 45 1008 125 35 39.7000 148.800 6 992 0 0 0 39.9000 148.500 9 38 995 39.9000 148.300 TS 45 990 21 70
2019242N14180 2019 55 WP MM FAXAI 2019-09-10 03:00:00 ET 40.1788 150.039 main 499 499 PPPP__________ WP142019 40.2360 150.216 EX 40 994 -4 60 100 85 45 1008 125 35 40.0894 150.070 6 994 0 0 40.1864 150.071 9 38 995 40.2276 149.560 TS 42 992 24 74
2019242N14180 2019 55 WP MM FAXAI 2019-09-10 06:00:00 ET 40.5308 151.646 996 tokyo main 578 573 OOOO__________ jtwc_wp WP142019 40.6000 151.800 EX 40 996 -4 60 100 85 45 1009 125 35 40.5000 151.500 6 996 0 0 0 40.5000 151.800 9 38 995 40.5000 151.000 TS 40 994 26 71
2019242N14180 2019 55 WP MM FAXAI 2019-09-10 09:00:00 ET 41.0044 153.259 main 587 582 PPP___________ WP142019 41.1448 153.155 EX 37 997 -4 50 97 85 1009 125 35 40.8859 153.214 6 997 0 0 40.9825 153.407 9 36 996 TS 26 69
2019242N14180 2019 55 WP MM FAXAI 2019-09-10 12:00:00 ET 41.4818 154.891 998 tokyo main 617 617 OOO___________ jtwc_wp WP142019 41.7000 154.600 EX 35 998 -4 40 95 85 1009 125 35 41.3000 155.000 6 998 0 0 0 41.5000 155.000 9 34 998 26 70
2019242N14180 2019 55 WP MM FAXAI 2019-09-10 15:00:00 ET 41.9015 156.476 main 672 672 PPP___________ WP142019 42.1090 156.350 EX 35 998 -4 35 82 67 1009 125 35 41.7848 156.529 6 999 0 0 41.9145 156.485 9 31 999 26 71
2019242N14180 2019 55 WP MM FAXAI 2019-09-10 18:00:00 ET 42.3125 158.212 1000 tokyo main 749 749 OOO___________ jtwc_wp WP142019 42.4000 158.300 EX 35 999 -4 30 70 50 1009 125 35 42.3000 158.200 6 1000 0 0 0 42.3000 158.200 9 29 1000 29 74
2019242N14180 2019 55 WP MM FAXAI 2019-09-10 21:00:00 ET 42.7045 160.311 main 869 869 _PP___________ WP142019 EX -4 42.7212 160.250 6 1000 0 0 42.6710 160.432 9 29 1000 34 76
2019242N14180 2019 55 WP MM FAXAI 2019-09-11 00:00:00 ET 43.1600 162.760 1000 tokyo main 936 936 _OO___________ 43.2000 162.700 6 1000 0 0 0 43.0000 163.000 9 29 1000 39 75
2019242N14180 2019 55 WP MM FAXAI 2019-09-11 03:00:00 ET 43.7390 165.516 main 1022 1022 _P____________ 43.7390 165.516 6 1001 0 0 9 45 73
2019242N14180 2019 55 WP MM FAXAI 2019-09-11 06:00:00 ET 44.5000 168.700 1002 tokyo main 1120 1120 _O____________ 44.5000 168.700 6 1002 0 0 0 51 69
2019242N14180 2019 55 WP MM FAXAI 2019-09-11 09:00:00 ET 45.5839 172.174 main 1202 1202 _P____________ 45.5839 172.174 6 1002 0 0 55 65
2019242N14180 2019 55 WP MM FAXAI 2019-09-11 12:00:00 ET 46.8000 175.900 1002 tokyo main 1274 _O____________ 46.8000 175.900 6 1002 0 0 0 57 65

IBTrACS Databaseについて

本データベースは、米国NOAAが公開する1842年以降の世界の熱帯低気圧のベストトラックデータアーカイブInternational Best Track Archive for Climate Stewardship (IBTrACS)を、ウェブで閲覧しやすい形式に変換したものです。

最終更新日:2021-12-01